createdAt,value
2023-04-17T00:00:19.090Z,996.25
2023-04-17T00:01:19.106Z,996.25
2023-04-17T00:02:19.176Z,996.26
2023-04-17T00:03:19.099Z,996.25
2023-04-17T00:04:19.128Z,996.31
2023-04-17T00:05:19.092Z,996.29
2023-04-17T00:06:19.047Z,996.29
2023-04-17T00:07:19.048Z,996.31
2023-04-17T00:08:19.028Z,996.27
2023-04-17T00:09:19.004Z,996.31
2023-04-17T00:10:19.009Z,996.29
2023-04-17T00:11:19.111Z,996.30
2023-04-17T00:12:18.995Z,996.24
2023-04-17T00:13:18.981Z,996.29
2023-04-17T00:14:18.965Z,996.30
2023-04-17T00:15:18.943Z,996.28
2023-04-17T00:16:18.976Z,996.36
2023-04-17T00:17:18.947Z,996.28
2023-04-17T00:18:18.949Z,996.29
2023-04-17T00:19:18.939Z,996.34
2023-04-17T00:20:18.884Z,996.29
2023-04-17T00:21:18.884Z,996.28
2023-04-17T00:22:19.931Z,996.27
2023-04-17T00:23:18.881Z,996.30
2023-04-17T00:24:18.846Z,996.32
2023-04-17T00:25:18.858Z,996.34
2023-04-17T00:26:18.864Z,996.37
2023-04-17T00:27:18.830Z,996.40
2023-04-17T00:28:18.820Z,996.33
2023-04-17T00:29:18.821Z,996.33
2023-04-17T00:30:18.788Z,996.39
2023-04-17T00:31:18.950Z,996.28
2023-04-17T00:32:18.801Z,996.33
2023-04-17T00:33:18.771Z,996.40
2023-04-17T00:34:18.739Z,996.27
2023-04-17T00:35:18.728Z,996.35
2023-04-17T00:36:18.746Z,996.34
2023-04-17T00:37:18.726Z,996.26
2023-04-17T00:38:18.741Z,996.30
2023-04-17T00:39:18.689Z,996.32
2023-04-17T00:40:18.677Z,996.26
2023-04-17T00:41:18.665Z,996.30
2023-04-17T00:42:18.684Z,996.32
2023-04-17T00:43:18.685Z,996.32
2023-04-17T00:44:18.643Z,996.30
2023-04-17T00:45:18.641Z,996.28
2023-04-17T00:46:18.796Z,996.27
2023-04-17T00:47:18.598Z,996.32
2023-04-17T00:48:18.640Z,996.23
2023-04-17T00:49:18.637Z,996.23
2023-04-17T00:50:18.554Z,996.21
2023-04-17T00:51:18.559Z,996.24
2023-04-17T00:52:18.602Z,996.24
2023-04-17T00:53:18.598Z,996.27
2023-04-17T00:54:18.564Z,996.25
2023-04-17T00:55:18.545Z,996.31
2023-04-17T00:56:18.488Z,996.31
2023-04-17T00:57:18.501Z,996.25
2023-04-17T00:58:18.520Z,996.26
2023-04-17T00:59:18.512Z,996.30
2023-04-17T01:00:18.551Z,996.25
2023-04-17T01:01:18.488Z,996.27
2023-04-17T01:02:18.534Z,996.23
2023-04-17T01:03:18.599Z,996.27
2023-04-17T01:04:18.580Z,996.23
2023-04-17T01:05:18.425Z,996.20
2023-04-17T01:06:18.387Z,996.25
2023-04-17T01:07:18.398Z,996.22
2023-04-17T01:08:18.404Z,996.30
2023-04-17T01:09:18.346Z,996.22
2023-04-17T01:10:18.371Z,996.28
2023-04-17T01:11:18.343Z,996.24
2023-04-17T01:12:18.327Z,996.27
2023-04-17T01:13:18.336Z,996.27
2023-04-17T01:14:18.330Z,996.33
2023-04-17T01:15:18.316Z,996.28
2023-04-17T01:16:18.335Z,996.29
2023-04-17T01:17:18.299Z,996.28
2023-04-17T01:18:18.262Z,996.32
2023-04-17T01:19:18.270Z,996.31
2023-04-17T01:20:18.262Z,996.34
2023-04-17T01:21:18.268Z,996.31
2023-04-17T01:22:18.220Z,996.28
2023-04-17T01:23:18.198Z,996.29
2023-04-17T01:24:18.224Z,996.31
2023-04-17T01:25:18.191Z,996.31
2023-04-17T01:26:18.183Z,996.30
2023-04-17T01:27:18.174Z,996.30
2023-04-17T01:28:18.178Z,996.36
2023-04-17T01:29:18.141Z,996.36
2023-04-17T01:30:18.146Z,996.33
2023-04-17T01:31:18.179Z,996.38
2023-04-17T01:32:18.111Z,996.32
2023-04-17T01:33:18.093Z,996.33
2023-04-17T01:34:18.083Z,996.35
2023-04-17T01:35:18.089Z,996.34
2023-04-17T01:36:18.083Z,996.31
2023-04-17T01:37:18.084Z,996.33
2023-04-17T01:38:18.030Z,996.31
2023-04-17T01:39:18.035Z,996.34
2023-04-17T01:40:18.061Z,996.33
2023-04-17T01:41:18.032Z,996.35
2023-04-17T01:42:18.010Z,996.35
2023-04-17T01:43:18.047Z,996.32
2023-04-17T01:44:17.985Z,996.34
2023-04-17T01:45:17.990Z,996.35
2023-04-17T01:46:17.961Z,996.31
2023-04-17T01:47:18.021Z,996.37
2023-04-17T01:48:17.944Z,996.37
2023-04-17T01:49:17.938Z,996.35
2023-04-17T01:50:17.937Z,996.38
2023-04-17T01:51:17.918Z,996.41
2023-04-17T01:52:17.904Z,996.39
2023-04-17T01:53:17.880Z,996.37
2023-04-17T01:54:17.883Z,996.40
2023-04-17T01:55:17.858Z,996.42
2023-04-17T01:56:17.843Z,996.37
2023-04-17T01:57:17.839Z,996.38
2023-04-17T01:58:17.845Z,996.42
2023-04-17T01:59:17.825Z,996.35
2023-04-17T02:00:17.812Z,996.39
2023-04-17T02:01:17.814Z,996.36
2023-04-17T02:02:17.876Z,996.43
2023-04-17T02:03:17.928Z,996.38
2023-04-17T02:04:17.865Z,996.38
2023-04-17T02:05:17.776Z,996.42
2023-04-17T02:06:17.746Z,996.42
2023-04-17T02:07:17.723Z,996.44
2023-04-17T02:08:17.726Z,996.39
2023-04-17T02:09:17.721Z,996.35
2023-04-17T02:10:17.702Z,996.37
2023-04-17T02:11:17.708Z,996.45
2023-04-17T02:12:17.684Z,996.38
2023-04-17T02:13:17.674Z,996.39
2023-04-17T02:14:17.687Z,996.34
2023-04-17T02:15:17.658Z,996.33
2023-04-17T02:16:17.722Z,996.41
2023-04-17T02:17:17.641Z,996.39
2023-04-17T02:18:17.628Z,996.41
2023-04-17T02:19:17.594Z,996.35
2023-04-17T02:20:17.615Z,996.47
2023-04-17T02:21:17.584Z,996.37
2023-04-17T02:22:17.566Z,996.31
2023-04-17T02:23:17.575Z,996.39
2023-04-17T02:24:17.564Z,996.35
2023-04-17T02:25:17.556Z,996.36
2023-04-17T02:26:17.533Z,996.39
2023-04-17T02:27:17.519Z,996.38
2023-04-17T02:28:17.505Z,996.39
2023-04-17T02:29:17.530Z,996.37
2023-04-17T02:30:17.485Z,996.36
2023-04-17T02:31:17.531Z,996.42
2023-04-17T02:32:17.492Z,996.35
2023-04-17T02:33:17.460Z,996.41
2023-04-17T02:34:17.471Z,996.35
2023-04-17T02:35:17.442Z,996.40
2023-04-17T02:36:17.417Z,996.41
2023-04-17T02:37:17.419Z,996.34
2023-04-17T02:38:17.428Z,996.45
2023-04-17T02:39:17.393Z,996.34
2023-04-17T02:40:17.411Z,996.41
2023-04-17T02:41:17.386Z,996.36
2023-04-17T02:42:17.356Z,996.40
2023-04-17T02:43:17.381Z,996.35
2023-04-17T02:44:17.349Z,996.40
2023-04-17T02:45:17.342Z,996.40
2023-04-17T02:46:17.376Z,996.37
2023-04-17T02:47:17.301Z,996.36
2023-04-17T02:48:17.301Z,996.28
2023-04-17T02:49:17.307Z,996.34
2023-04-17T02:50:17.266Z,996.37
2023-04-17T02:51:17.266Z,996.34
2023-04-17T02:52:17.254Z,996.30
2023-04-17T02:53:17.248Z,996.38
2023-04-17T02:54:17.240Z,996.39
2023-04-17T02:55:17.222Z,996.35
2023-04-17T02:56:17.227Z,996.37
2023-04-17T02:57:17.190Z,996.37
2023-04-17T02:58:17.207Z,996.36
2023-04-17T02:59:17.173Z,996.34
2023-04-17T03:00:17.162Z,996.35
2023-04-17T03:01:17.241Z,996.37
2023-04-17T03:02:17.211Z,996.37
2023-04-17T03:03:17.345Z,996.38
2023-04-17T03:04:17.181Z,996.37
2023-04-17T03:05:17.118Z,996.36
2023-04-17T03:06:17.111Z,996.40
2023-04-17T03:07:17.108Z,996.36
2023-04-17T03:08:17.073Z,996.35
2023-04-17T03:09:17.064Z,996.41
2023-04-17T03:10:17.075Z,996.39
2023-04-17T03:11:17.066Z,996.41
2023-04-17T03:12:17.058Z,996.39
2023-04-17T03:13:17.044Z,996.33
2023-04-17T03:14:17.029Z,996.42
2023-04-17T03:15:16.996Z,996.40
2023-04-17T03:16:17.073Z,996.33
2023-04-17T03:17:17.023Z,996.44
2023-04-17T03:18:16.969Z,996.42
2023-04-17T03:19:16.970Z,996.37
2023-04-17T03:20:16.961Z,996.39
2023-04-17T03:21:16.959Z,996.40
2023-04-17T03:22:16.947Z,996.39
2023-04-17T03:23:16.922Z,996.43
2023-04-17T03:24:16.902Z,996.40
2023-04-17T03:25:16.943Z,996.46
2023-04-17T03:26:16.898Z,996.42
2023-04-17T03:27:16.888Z,996.50
2023-04-17T03:28:16.888Z,996.42
2023-04-17T03:29:17.845Z,996.49
2023-04-17T03:30:16.845Z,996.43
2023-04-17T03:31:16.898Z,996.43
2023-04-17T03:32:16.896Z,996.54
2023-04-17T03:33:16.856Z,996.52
2023-04-17T03:34:16.818Z,996.51
2023-04-17T03:35:16.803Z,996.49
2023-04-17T03:36:16.782Z,996.58
2023-04-17T03:37:16.787Z,996.51
2023-04-17T03:38:16.798Z,996.52
2023-04-17T03:39:16.744Z,996.50
2023-04-17T03:40:16.740Z,996.49
2023-04-17T03:41:16.737Z,996.58
2023-04-17T03:42:16.719Z,996.53
2023-04-17T03:43:16.737Z,996.53
2023-04-17T03:44:16.700Z,996.59
2023-04-17T03:45:16.677Z,996.62
2023-04-17T03:46:16.706Z,996.62
2023-04-17T03:47:16.663Z,996.56
2023-04-17T03:48:16.664Z,996.61
2023-04-17T03:49:16.651Z,996.58
2023-04-17T03:50:16.644Z,996.59
2023-04-17T03:51:16.628Z,996.58
2023-04-17T03:52:17.622Z,996.58
2023-04-17T03:53:16.619Z,996.57
2023-04-17T03:54:49.276Z,996.57
2023-04-17T03:55:16.591Z,996.59
2023-04-17T03:56:16.590Z,996.69
2023-04-17T03:57:16.602Z,996.67
2023-04-17T03:58:16.560Z,996.61
2023-04-17T03:59:17.527Z,996.63
2023-04-17T04:00:16.541Z,996.66
2023-04-17T04:01:16.564Z,996.68
2023-04-17T04:02:16.650Z,996.72
2023-04-17T04:03:16.692Z,996.64
2023-04-17T04:04:16.585Z,996.75
2023-04-17T04:05:16.570Z,996.66
2023-04-17T04:06:16.517Z,996.69
2023-04-17T04:07:16.480Z,996.73
2023-04-17T04:08:16.488Z,996.78
2023-04-17T04:09:16.493Z,996.71
2023-04-17T04:10:16.448Z,996.73
2023-04-17T04:11:16.470Z,996.71
2023-04-17T04:12:16.420Z,996.70
2023-04-17T04:13:16.392Z,996.79
2023-04-17T04:14:16.381Z,996.80
2023-04-17T04:15:16.413Z,996.81
2023-04-17T04:16:16.373Z,996.78
2023-04-17T04:17:16.365Z,996.84
2023-04-17T04:18:16.366Z,996.76
2023-04-17T04:19:16.316Z,996.81
2023-04-17T04:20:17.312Z,996.77
2023-04-17T04:21:16.334Z,996.80
2023-04-17T04:22:16.370Z,996.85
2023-04-17T04:23:16.295Z,996.86
2023-04-17T04:24:16.259Z,996.82
2023-04-17T04:25:16.265Z,996.90
2023-04-17T04:26:16.287Z,996.87
2023-04-17T04:27:17.783Z,996.91
2023-04-17T04:28:17.257Z,996.92
2023-04-17T04:29:16.221Z,996.91
2023-04-17T04:30:16.211Z,996.88
2023-04-17T04:31:16.226Z,996.87
2023-04-17T04:32:16.280Z,996.88
2023-04-17T04:33:16.189Z,996.88
2023-04-17T04:34:16.160Z,996.87
2023-04-17T04:35:16.215Z,996.83
2023-04-17T04:36:16.171Z,996.92
2023-04-17T04:37:16.176Z,996.95
2023-04-17T04:38:16.149Z,996.92
2023-04-17T04:39:16.165Z,996.91
2023-04-17T04:40:16.112Z,996.90
2023-04-17T04:41:16.102Z,996.90
2023-04-17T04:42:16.103Z,996.95
2023-04-17T04:43:16.058Z,996.98
2023-04-17T04:44:16.049Z,996.86
2023-04-17T04:45:16.099Z,996.93
2023-04-17T04:46:17.121Z,996.90
2023-04-17T04:47:16.019Z,996.94
2023-04-17T04:48:16.027Z,996.94
2023-04-17T04:49:16.036Z,996.87
2023-04-17T04:50:16.018Z,996.92
2023-04-17T04:51:16.009Z,996.92
2023-04-17T04:52:16.010Z,996.96
2023-04-17T04:53:16.012Z,996.96
2023-04-17T04:54:15.991Z,996.94
2023-04-17T04:55:16.000Z,996.95
2023-04-17T04:56:15.942Z,996.96
2023-04-17T04:57:15.918Z,996.99
2023-04-17T04:58:15.932Z,996.95
2023-04-17T04:59:15.902Z,996.94
2023-04-17T05:00:15.916Z,996.99
2023-04-17T05:01:16.149Z,996.96
2023-04-17T05:02:15.949Z,997.00
2023-04-17T05:03:16.047Z,996.94
2023-04-17T05:04:15.949Z,997.00
2023-04-17T05:05:15.882Z,996.98
2023-04-17T05:06:15.865Z,997.01
2023-04-17T05:07:15.881Z,997.00
2023-04-17T05:08:15.843Z,996.97
2023-04-17T05:09:16.966Z,997.04
2023-04-17T05:10:15.787Z,997.00
2023-04-17T05:11:15.886Z,996.97
2023-04-17T05:12:15.823Z,996.97
2023-04-17T05:13:15.751Z,997.05
2023-04-17T05:14:15.847Z,997.00
2023-04-17T05:15:15.734Z,997.02
2023-04-17T05:16:15.842Z,997.06
2023-04-17T05:17:15.824Z,997.03
2023-04-17T05:18:15.789Z,997.01
2023-04-17T05:19:15.728Z,997.01
2023-04-17T05:20:15.713Z,997.05
2023-04-17T05:21:15.804Z,996.99
2023-04-17T05:22:15.698Z,996.99
2023-04-17T05:23:15.739Z,997.06
2023-04-17T05:24:15.707Z,997.02
2023-04-17T05:25:15.709Z,997.03
2023-04-17T05:26:15.647Z,996.99
2023-04-17T05:27:15.698Z,997.01
2023-04-17T05:28:17.007Z,997.01
2023-04-17T05:29:16.647Z,997.00
2023-04-17T05:30:15.632Z,997.04
2023-04-17T05:31:15.632Z,997.05
2023-04-17T05:32:15.598Z,997.02
2023-04-17T05:33:15.589Z,997.08
2023-04-17T05:34:15.602Z,997.04
2023-04-17T05:35:15.594Z,997.07
2023-04-17T05:36:15.723Z,997.03
2023-04-17T05:37:15.533Z,997.03
2023-04-17T05:38:15.550Z,997.04
2023-04-17T05:39:15.530Z,997.11
2023-04-17T05:40:15.495Z,997.15
2023-04-17T05:41:15.556Z,997.12
2023-04-17T05:42:15.493Z,997.04
2023-04-17T05:43:15.483Z,997.09
2023-04-17T05:44:15.447Z,997.02
2023-04-17T05:45:15.493Z,997.07
2023-04-17T05:46:15.504Z,997.06
2023-04-17T05:47:15.424Z,997.09
2023-04-17T05:48:15.429Z,997.01
2023-04-17T05:49:15.433Z,997.02
2023-04-17T05:50:15.421Z,997.10
2023-04-17T05:51:15.400Z,997.10
2023-04-17T05:52:15.378Z,997.06
2023-04-17T05:53:15.429Z,997.06
2023-04-17T05:54:15.397Z,997.10
2023-04-17T05:55:15.365Z,997.05
2023-04-17T05:56:15.318Z,997.13
2023-04-17T05:57:16.360Z,997.06
2023-04-17T05:59:16.303Z,997.12
2023-04-17T06:00:15.302Z,997.07
2023-04-17T06:01:15.353Z,997.12
2023-04-17T06:02:15.345Z,997.08
2023-04-17T06:03:18.061Z,997.16
2023-04-17T06:04:17.257Z,997.13
2023-04-17T06:05:15.435Z,997.15
2023-04-17T06:06:15.254Z,997.17
2023-04-17T06:07:15.250Z,997.11
2023-04-17T06:08:15.240Z,997.14
2023-04-17T06:09:15.359Z,997.18
2023-04-17T06:10:15.195Z,997.18
2023-04-17T06:11:15.391Z,997.21
2023-04-17T06:12:15.190Z,997.21
2023-04-17T06:13:15.154Z,997.29
2023-04-17T06:14:15.218Z,997.23
2023-04-17T06:15:15.154Z,997.34
2023-04-17T06:16:15.185Z,997.22
2023-04-17T06:17:15.132Z,997.26
2023-04-17T06:18:15.117Z,997.27
2023-04-17T06:19:15.101Z,997.32
2023-04-17T06:20:15.082Z,997.31
2023-04-17T06:21:15.095Z,997.29
2023-04-17T06:22:15.100Z,997.31
2023-04-17T06:23:15.122Z,997.34
2023-04-17T06:24:15.076Z,997.27
2023-04-17T06:25:15.041Z,997.19
2023-04-17T06:26:15.035Z,997.31
2023-04-17T06:27:15.035Z,997.33
2023-04-17T06:28:15.010Z,997.30
2023-04-17T06:29:15.020Z,997.29
2023-04-17T06:30:14.996Z,997.25
2023-04-17T06:31:15.018Z,997.35
2023-04-17T06:32:14.969Z,997.29
2023-04-17T06:33:14.943Z,997.27
2023-04-17T06:34:14.932Z,997.30
2023-04-17T06:35:14.929Z,997.29
2023-04-17T06:36:14.912Z,997.35
2023-04-17T06:37:14.908Z,997.38
2023-04-17T06:38:14.937Z,997.36
2023-04-17T06:39:14.860Z,997.38
2023-04-17T06:40:14.862Z,997.30
2023-04-17T06:41:14.904Z,997.39
2023-04-17T06:42:14.859Z,997.39
2023-04-17T06:43:14.866Z,997.40
2023-04-17T06:44:14.846Z,997.43
2023-04-17T06:45:15.856Z,997.41
2023-04-17T06:46:14.903Z,997.49
2023-04-17T06:47:14.800Z,997.44
2023-04-17T06:48:14.812Z,997.51
2023-04-17T06:49:15.090Z,997.45
2023-04-17T06:50:14.758Z,997.53
2023-04-17T06:51:14.829Z,997.50
2023-04-17T06:52:14.797Z,997.55
2023-04-17T06:53:14.770Z,997.53
2023-04-17T06:54:14.731Z,997.49
2023-04-17T06:55:14.757Z,997.48
2023-04-17T06:56:14.761Z,997.50
2023-04-17T06:57:14.670Z,997.55
2023-04-17T06:58:14.771Z,997.57
2023-04-17T06:59:14.652Z,997.60
2023-04-17T07:00:14.647Z,997.58
2023-04-17T07:01:14.748Z,997.63
2023-04-17T07:02:14.794Z,997.67
2023-04-17T07:03:14.884Z,997.66
2023-04-17T07:04:14.701Z,997.70
2023-04-17T07:05:14.651Z,997.65
2023-04-17T07:06:14.597Z,997.61
2023-04-17T07:07:14.659Z,997.66
2023-04-17T07:08:14.580Z,997.68
2023-04-17T07:09:14.788Z,997.59
2023-04-17T07:10:14.567Z,997.69
2023-04-17T07:11:14.630Z,997.69
2023-04-17T07:12:14.563Z,997.71
2023-04-17T07:13:14.555Z,997.68
2023-04-17T07:14:14.523Z,997.75
2023-04-17T07:15:14.575Z,997.71
2023-04-17T07:16:14.521Z,997.67
2023-04-17T07:17:14.481Z,997.73
2023-04-17T07:18:14.541Z,997.72
2023-04-17T07:19:14.621Z,997.76
2023-04-17T07:20:14.492Z,997.80
2023-04-17T07:21:14.403Z,997.71
2023-04-17T07:22:14.443Z,997.71
2023-04-17T07:23:14.451Z,997.75
2023-04-17T07:24:14.392Z,997.77
2023-04-17T07:25:14.386Z,997.81
2023-04-17T07:26:14.369Z,997.76
2023-04-17T07:27:14.348Z,997.75
2023-04-17T07:28:14.442Z,997.81
2023-04-17T07:29:14.611Z,997.75
2023-04-17T07:30:14.307Z,997.77
2023-04-17T07:31:14.445Z,997.78
2023-04-17T07:32:14.289Z,997.82
2023-04-17T07:33:14.289Z,997.71
2023-04-17T07:34:14.262Z,997.77
2023-04-17T07:35:14.277Z,997.79
2023-04-17T07:36:14.282Z,997.82
2023-04-17T07:37:14.261Z,997.75
2023-04-17T07:38:14.280Z,997.75
2023-04-17T07:39:14.391Z,997.77
2023-04-17T07:40:14.239Z,997.82
2023-04-17T07:41:14.224Z,997.84
2023-04-17T07:42:14.184Z,997.83
2023-04-17T07:43:14.204Z,997.95
2023-04-17T07:44:14.175Z,997.94
2023-04-17T07:45:14.198Z,997.95
2023-04-17T07:46:14.263Z,997.94
2023-04-17T07:47:14.217Z,997.99
2023-04-17T07:48:14.328Z,998.01
2023-04-17T07:49:15.418Z,998.00
2023-04-17T07:50:14.097Z,997.95
2023-04-17T07:51:14.138Z,998.01
2023-04-17T07:52:14.055Z,997.94
2023-04-17T07:53:14.110Z,997.99
2023-04-17T07:54:14.057Z,998.01
2023-04-17T07:55:14.133Z,997.92
2023-04-17T07:56:14.029Z,997.93
2023-04-17T07:57:14.000Z,997.92
2023-04-17T07:58:14.032Z,997.98
2023-04-17T07:59:14.205Z,997.92
2023-04-17T08:00:14.021Z,997.93
2023-04-17T08:01:13.983Z,997.92
2023-04-17T08:02:14.058Z,997.86
2023-04-17T08:03:14.022Z,997.90
2023-04-17T08:04:14.174Z,997.93
2023-04-17T08:05:14.018Z,997.89
2023-04-17T08:06:13.947Z,997.96
2023-04-17T08:07:13.903Z,997.96
2023-04-17T08:08:14.003Z,997.94
2023-04-17T08:09:14.329Z,997.97
2023-04-17T08:10:13.877Z,997.95
2023-04-17T08:11:13.872Z,997.97
2023-04-17T08:12:13.868Z,998.01
2023-04-17T08:13:13.912Z,998.04
2023-04-17T08:14:13.926Z,997.97
2023-04-17T08:15:13.829Z,998.09
2023-04-17T08:16:13.853Z,997.96
2023-04-17T08:17:13.786Z,998.00
2023-04-17T08:18:13.824Z,998.02
2023-04-17T08:19:13.981Z,998.01
2023-04-17T08:20:13.835Z,998.05
2023-04-17T08:21:13.762Z,998.06
2023-04-17T08:22:13.740Z,997.98
2023-04-17T08:23:13.758Z,998.17
2023-04-17T08:24:13.727Z,998.05
2023-04-17T08:25:13.700Z,998.08
2023-04-17T08:26:13.714Z,998.08
2023-04-17T08:27:13.667Z,998.06
2023-04-17T08:28:13.685Z,998.03
2023-04-17T08:29:13.991Z,998.06
2023-04-17T08:30:16.197Z,998.00
2023-04-17T08:31:13.712Z,997.94
2023-04-17T08:32:15.150Z,997.96
2023-04-17T08:33:14.674Z,997.96
2023-04-17T08:34:15.217Z,998.05
2023-04-17T08:35:14.624Z,998.09
2023-04-17T08:36:13.572Z,998.06
2023-04-17T08:37:13.847Z,998.09
2023-04-17T08:38:13.556Z,998.03
2023-04-17T08:39:13.828Z,998.06
2023-04-17T08:40:13.539Z,998.04
2023-04-17T08:41:13.517Z,998.04
2023-04-17T08:42:17.711Z,998.05
2023-04-17T08:43:15.550Z,997.96
2023-04-17T08:44:13.502Z,998.11
2023-04-17T08:45:13.502Z,998.01
2023-04-17T08:46:13.578Z,998.13
2023-04-17T08:47:13.464Z,998.03
2023-04-17T08:48:13.478Z,998.05
2023-04-17T08:49:13.652Z,998.02
2023-04-17T08:50:13.463Z,998.06
2023-04-17T08:51:13.432Z,997.95
2023-04-17T08:52:13.391Z,998.02
2023-04-17T08:53:13.385Z,998.02
2023-04-17T08:54:13.364Z,997.97
2023-04-17T08:55:13.379Z,997.97
2023-04-17T08:56:13.364Z,998.01
2023-04-17T08:57:13.344Z,998.08
2023-04-17T08:58:13.313Z,998.09
2023-04-17T08:59:13.456Z,998.02
2023-04-17T09:00:13.302Z,998.04
2023-04-17T09:01:13.260Z,998.01
2023-04-17T09:02:13.464Z,998.03
2023-04-17T09:03:13.571Z,998.11
2023-04-17T09:04:13.495Z,998.11
2023-04-17T09:05:13.245Z,998.06
2023-04-17T09:06:13.299Z,998.04
2023-04-17T09:07:13.234Z,998.05
2023-04-17T09:08:13.254Z,997.99
2023-04-17T09:09:13.429Z,998.09
2023-04-17T09:10:13.208Z,998.05
2023-04-17T09:11:13.144Z,998.12
2023-04-17T09:12:13.210Z,998.06
2023-04-17T09:13:13.164Z,998.05
2023-04-17T09:14:13.162Z,998.05
2023-04-17T09:15:13.164Z,998.03
2023-04-17T09:16:13.196Z,998.00
2023-04-17T09:17:13.105Z,997.96
2023-04-17T09:18:13.138Z,997.94
2023-04-17T09:19:13.210Z,998.02
2023-04-17T09:20:13.073Z,997.96
2023-04-17T09:21:13.058Z,997.95
2023-04-17T09:22:13.056Z,998.07
2023-04-17T09:23:13.017Z,998.05
2023-04-17T09:24:13.038Z,997.99
2023-04-17T09:25:13.055Z,997.98
2023-04-17T09:26:13.009Z,997.79
2023-04-17T09:27:14.051Z,997.90
2023-04-17T09:28:12.963Z,997.99
2023-04-17T09:29:13.371Z,997.93
2023-04-17T09:30:12.953Z,997.94
2023-04-17T09:31:13.001Z,997.93
2023-04-17T09:32:12.970Z,997.85
2023-04-17T09:33:13.019Z,997.89
2023-04-17T09:34:12.923Z,997.84
2023-04-17T09:35:12.921Z,997.99
2023-04-17T09:36:12.895Z,998.01
2023-04-17T09:37:12.844Z,998.06
2023-04-17T09:38:12.913Z,998.00
2023-04-17T09:39:13.131Z,998.08
2023-04-17T09:40:12.843Z,998.01
2023-04-17T09:41:12.870Z,998.04
2023-04-17T09:42:12.881Z,998.06
2023-04-17T09:43:12.837Z,998.09
2023-04-17T09:44:12.971Z,998.05
2023-04-17T09:45:12.841Z,997.99
2023-04-17T09:46:12.853Z,997.93
2023-04-17T09:47:12.863Z,998.00
2023-04-17T09:48:12.821Z,998.00
2023-04-17T09:49:12.740Z,997.95
2023-04-17T09:50:12.713Z,997.95
2023-04-17T09:51:12.800Z,997.92
2023-04-17T09:52:12.698Z,997.84
2023-04-17T09:53:12.660Z,997.94
2023-04-17T09:54:13.085Z,997.90
2023-04-17T09:55:12.669Z,997.89
2023-04-17T09:56:12.686Z,997.92
2023-04-17T09:57:12.648Z,997.83
2023-04-17T09:58:12.632Z,997.89
2023-04-17T09:59:12.629Z,997.83
2023-04-17T10:00:12.605Z,997.82
2023-04-17T10:01:12.608Z,997.87
2023-04-17T10:02:12.783Z,997.87
2023-04-17T10:03:12.656Z,997.86
2023-04-17T10:04:12.906Z,997.82
2023-04-17T10:05:12.558Z,997.73
2023-04-17T10:06:12.551Z,997.82
2023-04-17T10:07:12.544Z,997.77
2023-04-17T10:08:12.503Z,997.82
2023-04-17T10:09:12.595Z,997.78
2023-04-17T10:10:12.470Z,997.84
2023-04-17T10:11:12.510Z,997.72
2023-04-17T10:12:12.463Z,997.70
2023-04-17T10:13:12.468Z,997.82
2023-04-17T10:14:12.773Z,997.80
2023-04-17T10:15:12.448Z,997.80
2023-04-17T10:16:12.480Z,997.73
2023-04-17T10:17:12.414Z,997.78
2023-04-17T10:18:12.504Z,997.76
2023-04-17T10:19:12.402Z,997.69
2023-04-17T10:20:12.407Z,997.73
2023-04-17T10:21:12.407Z,997.66
2023-04-17T10:22:12.388Z,997.70
2023-04-17T10:23:12.357Z,997.61
2023-04-17T10:24:12.621Z,997.61
2023-04-17T10:25:12.363Z,997.64
2023-04-17T10:26:12.340Z,997.60
2023-04-17T10:27:12.325Z,997.71
2023-04-17T10:28:12.393Z,997.66
2023-04-17T10:29:12.298Z,997.67
2023-04-17T10:30:12.316Z,997.62
2023-04-17T10:31:12.285Z,997.58
2023-04-17T10:32:12.369Z,997.53
2023-04-17T10:33:12.317Z,997.60
2023-04-17T10:34:12.452Z,997.53
2023-04-17T10:35:12.279Z,997.49
2023-04-17T10:36:12.211Z,997.52
2023-04-17T10:37:12.210Z,997.52
2023-04-17T10:38:12.266Z,997.50
2023-04-17T10:39:12.569Z,997.51
2023-04-17T10:40:13.978Z,997.46
2023-04-17T10:41:12.146Z,997.52
2023-04-17T10:42:12.199Z,997.48
2023-04-17T10:43:13.123Z,997.53
2023-04-17T10:44:12.126Z,997.48
2023-04-17T10:45:12.148Z,997.44
2023-04-17T10:46:12.201Z,997.44
2023-04-17T10:48:12.200Z,997.47
2023-04-17T10:49:12.289Z,997.56
2023-04-17T10:50:12.082Z,997.46
2023-04-17T10:51:12.088Z,997.43
2023-04-17T10:52:12.253Z,997.45
2023-04-17T10:53:13.022Z,997.48
2023-04-17T10:54:12.021Z,997.41
2023-04-17T10:55:12.018Z,997.37
2023-04-17T10:56:12.082Z,997.51
2023-04-17T10:57:11.967Z,997.41
2023-04-17T10:58:11.951Z,997.41
2023-04-17T10:59:12.322Z,997.41
2023-04-17T11:00:11.972Z,997.42
2023-04-17T11:01:11.962Z,997.49
2023-04-17T11:02:11.963Z,997.46
2023-04-17T11:03:12.052Z,997.37
2023-04-17T11:04:11.934Z,997.35
2023-04-17T11:05:11.895Z,997.35
2023-04-17T11:06:11.939Z,997.41
2023-04-17T11:07:11.855Z,997.37
2023-04-17T11:08:11.842Z,997.34
2023-04-17T11:09:12.321Z,997.40
2023-04-17T11:10:12.871Z,997.27
2023-04-17T11:11:11.851Z,997.35
2023-04-17T11:12:11.841Z,997.26
2023-04-17T11:13:11.854Z,997.27
2023-04-17T11:14:14.135Z,997.33
2023-04-17T11:15:12.791Z,997.33
2023-04-17T11:16:11.805Z,997.25
2023-04-17T11:17:11.846Z,997.22
2023-04-17T11:18:11.807Z,997.24
2023-04-17T11:19:11.992Z,997.26
2023-04-17T11:20:11.749Z,997.33
2023-04-17T11:21:11.688Z,997.24
2023-04-17T11:22:11.755Z,997.32
2023-04-17T11:23:11.675Z,997.25
2023-04-17T11:24:11.683Z,997.20
2023-04-17T11:25:11.702Z,997.19
2023-04-17T11:26:11.670Z,997.19
2023-04-17T11:27:11.651Z,997.12
2023-04-17T11:28:11.642Z,997.14
2023-04-17T11:29:11.890Z,997.16
2023-04-17T11:30:11.666Z,997.17
2023-04-17T11:31:11.679Z,997.14
2023-04-17T11:32:11.632Z,997.13
2023-04-17T11:33:11.653Z,997.07
2023-04-17T11:34:11.582Z,997.13
2023-04-17T11:35:11.602Z,997.10
2023-04-17T11:36:11.554Z,997.12
2023-04-17T11:37:11.553Z,997.09
2023-04-17T11:38:11.594Z,997.11
2023-04-17T11:39:11.744Z,997.07
2023-04-17T11:40:11.581Z,997.15
2023-04-17T11:41:11.530Z,997.10
2023-04-17T11:42:11.497Z,997.13
2023-04-17T11:43:11.485Z,997.15
2023-04-17T11:44:11.479Z,997.04
2023-04-17T11:45:11.489Z,997.10
2023-04-17T11:46:11.454Z,997.04
2023-04-17T11:47:11.462Z,996.97
2023-04-17T11:48:11.477Z,997.02
2023-04-17T11:49:11.699Z,997.06
2023-04-17T11:50:11.450Z,997.13
2023-04-17T11:51:11.462Z,996.99
2023-04-17T11:52:11.406Z,996.98
2023-04-17T11:53:11.374Z,997.03
2023-04-17T11:54:11.608Z,997.09
2023-04-17T11:55:11.366Z,997.10
2023-04-17T11:56:11.352Z,997.09
2023-04-17T11:57:11.360Z,997.17
2023-04-17T11:58:11.324Z,997.10
2023-04-17T11:59:11.404Z,997.01
2023-04-17T12:00:11.361Z,997.16
2023-04-17T12:01:11.337Z,997.00
2023-04-17T12:02:11.294Z,997.08
2023-04-17T12:03:11.372Z,997.04
2023-04-17T12:04:11.733Z,997.05
2023-04-17T12:05:11.451Z,997.11
2023-04-17T12:06:11.270Z,997.02
2023-04-17T12:07:11.243Z,997.07
2023-04-17T12:08:11.206Z,997.07
2023-04-17T12:09:11.716Z,997.02
2023-04-17T12:10:11.183Z,997.06
2023-04-17T12:11:11.954Z,997.03
2023-04-17T12:12:11.209Z,997.02
2023-04-17T12:13:11.184Z,997.04
2023-04-17T12:14:11.435Z,997.07
2023-04-17T12:15:11.186Z,997.11
2023-04-17T12:16:11.166Z,997.01
2023-04-17T12:17:11.101Z,997.01
2023-04-17T12:18:11.148Z,997.06
2023-04-17T12:19:11.099Z,997.00
2023-04-17T12:20:11.672Z,997.08
2023-04-17T12:21:11.185Z,997.07
2023-04-17T12:22:11.060Z,997.04
2023-04-17T12:23:11.054Z,997.03
2023-04-17T12:24:11.387Z,997.07
2023-04-17T12:25:11.041Z,997.10
2023-04-17T12:26:11.002Z,996.90
2023-04-17T12:27:11.074Z,997.04
2023-04-17T12:28:11.016Z,997.05
2023-04-17T12:29:11.016Z,997.05
2023-04-17T12:30:11.029Z,997.05